sensor_id;sensor_type;location;lat;lon;timestamp;P1;durP1;ratioP1;P2;durP2;ratioP2
59876;SDS011;45749;51.140;17.184;2022-11-15T00:00:53;75.42;;;45.90;;
59876;SDS011;45749;51.140;17.184;2022-11-15T00:03:21;81.57;;;49.13;;
59876;SDS011;45749;51.140;17.184;2022-11-15T00:05:50;67.55;;;39.88;;
59876;SDS011;45749;51.140;17.184;2022-11-15T00:08:17;66.45;;;42.13;;
59876;SDS011;45749;51.140;17.184;2022-11-15T00:10:53;61.15;;;37.23;;
59876;SDS011;45749;51.140;17.184;2022-11-15T00:13:25;65.70;;;38.90;;
59876;SDS011;45749;51.140;17.184;2022-11-15T00:15:52;56.55;;;37.03;;
59876;SDS011;45749;51.140;17.184;2022-11-15T00:18:18;65.85;;;38.50;;
59876;SDS011;45749;51.140;17.184;2022-11-15T00:20:44;58.20;;;37.95;;
59876;SDS011;45749;51.140;17.184;2022-11-15T00:23:10;69.65;;;44.25;;
59876;SDS011;45749;51.140;17.184;2022-11-15T00:25:36;64.00;;;42.25;;
59876;SDS011;45749;51.140;17.184;2022-11-15T00:28:02;62.33;;;38.95;;
59876;SDS011;45749;51.140;17.184;2022-11-15T00:30:29;64.05;;;38.65;;
59876;SDS011;45749;51.140;17.184;2022-11-15T00:32:55;60.52;;;37.42;;
59876;SDS011;45749;51.140;17.184;2022-11-15T00:35:21;60.88;;;37.65;;
59876;SDS011;45749;51.140;17.184;2022-11-15T00:37:48;56.02;;;37.98;;
59876;SDS011;45749;51.140;17.184;2022-11-15T00:40:14;62.13;;;36.42;;
59876;SDS011;45749;51.140;17.184;2022-11-15T00:42:40;64.20;;;38.90;;
59876;SDS011;45749;51.140;17.184;2022-11-15T00:45:07;66.80;;;38.55;;
59876;SDS011;45749;51.140;17.184;2022-11-15T00:47:34;57.33;;;37.73;;
59876;SDS011;45749;51.140;17.184;2022-11-15T00:49:59;58.48;;;35.68;;
59876;SDS011;45749;51.140;17.184;2022-11-15T00:52:25;64.03;;;38.35;;
59876;SDS011;45749;51.140;17.184;2022-11-15T00:54:51;62.55;;;37.70;;
59876;SDS011;45749;51.140;17.184;2022-11-15T00:57:17;60.95;;;38.05;;
59876;SDS011;45749;51.140;17.184;2022-11-15T00:59:43;64.60;;;38.95;;
59876;SDS011;45749;51.140;17.184;2022-11-15T01:02:09;58.42;;;36.80;;
59876;SDS011;45749;51.140;17.184;2022-11-15T01:04:35;54.95;;;35.68;;
59876;SDS011;45749;51.140;17.184;2022-11-15T01:07:01;58.00;;;36.08;;
59876;SDS011;45749;51.140;17.184;2022-11-15T01:09:28;62.53;;;36.03;;
59876;SDS011;45749;51.140;17.184;2022-11-15T01:11:54;64.25;;;35.90;;
59876;SDS011;45749;51.140;17.184;2022-11-15T01:14:19;60.17;;;36.95;;
59876;SDS011;45749;51.140;17.184;2022-11-15T01:16:46;61.28;;;37.90;;
59876;SDS011;45749;51.140;17.184;2022-11-15T01:19:12;61.50;;;36.73;;
59876;SDS011;45749;51.140;17.184;2022-11-15T01:21:38;58.95;;;35.10;;
59876;SDS011;45749;51.140;17.184;2022-11-15T01:24:04;62.70;;;34.75;;
59876;SDS011;45749;51.140;17.184;2022-11-15T01:26:31;60.88;;;36.58;;
59876;SDS011;45749;51.140;17.184;2022-11-15T01:28:56;58.13;;;35.73;;
59876;SDS011;45749;51.140;17.184;2022-11-15T01:31:22;58.95;;;36.17;;
59876;SDS011;45749;51.140;17.184;2022-11-15T01:33:48;55.58;;;33.20;;
59876;SDS011;45749;51.140;17.184;2022-11-15T01:36:16;57.88;;;36.28;;
59876;SDS011;45749;51.140;17.184;2022-11-15T01:38:46;54.27;;;34.00;;
59876;SDS011;45749;51.140;17.184;2022-11-15T01:41:23;57.65;;;35.00;;
59876;SDS011;45749;51.140;17.184;2022-11-15T01:43:53;63.00;;;38.42;;
59876;SDS011;45749;51.140;17.184;2022-11-15T01:46:28;55.45;;;35.80;;
59876;SDS011;45749;51.140;17.184;2022-11-15T01:49:05;54.95;;;33.48;;
59876;SDS011;45749;51.140;17.184;2022-11-15T01:51:38;55.92;;;33.48;;
59876;SDS011;45749;51.140;17.184;2022-11-15T01:57:02;68.95;;;39.03;;
59876;SDS011;45749;51.140;17.184;2022-11-15T01:59:37;66.12;;;36.63;;
59876;SDS011;45749;51.140;17.184;2022-11-15T02:02:06;56.50;;;32.05;;
59876;SDS011;45749;51.140;17.184;2022-11-15T02:04:32;63.87;;;34.45;;
59876;SDS011;45749;51.140;17.184;2022-11-15T02:07:03;59.25;;;33.50;;
59876;SDS011;45749;51.140;17.184;2022-11-15T02:09:32;49.50;;;31.68;;
59876;SDS011;45749;51.140;17.184;2022-11-15T02:11:58;54.38;;;32.03;;
59876;SDS011;45749;51.140;17.184;2022-11-15T02:14:25;57.78;;;33.75;;
59876;SDS011;45749;51.140;17.184;2022-11-15T02:25:30;55.25;;;32.33;;
59876;SDS011;45749;51.140;17.184;2022-11-15T02:33:47;55.83;;;34.13;;
59876;SDS011;45749;51.140;17.184;2022-11-15T02:36:43;56.77;;;35.15;;
59876;SDS011;45749;51.140;17.184;2022-11-15T02:39:23;57.23;;;33.13;;
59876;SDS011;45749;51.140;17.184;2022-11-15T02:42:02;58.45;;;33.23;;
59876;SDS011;45749;51.140;17.184;2022-11-15T02:44:38;55.15;;;32.55;;
59876;SDS011;45749;51.140;17.184;2022-11-15T02:47:09;55.40;;;33.35;;
59876;SDS011;45749;51.140;17.184;2022-11-15T02:49:39;56.73;;;32.48;;
59876;SDS011;45749;51.140;17.184;2022-11-15T02:52:14;52.73;;;31.07;;
59876;SDS011;45749;51.140;17.184;2022-11-15T02:54:55;54.03;;;31.27;;
59876;SDS011;45749;51.140;17.184;2022-11-15T03:00:10;55.17;;;33.20;;
59876;SDS011;45749;51.140;17.184;2022-11-15T03:05:43;50.40;;;29.75;;
59876;SDS011;45749;51.140;17.184;2022-11-15T03:08:41;53.70;;;32.15;;
59876;SDS011;45749;51.140;17.184;2022-11-15T03:11:26;55.15;;;30.43;;
59876;SDS011;45749;51.140;17.184;2022-11-15T03:13:59;56.20;;;35.23;;
59876;SDS011;45749;51.140;17.184;2022-11-15T03:19:54;62.35;;;35.88;;
59876;SDS011;45749;51.140;17.184;2022-11-15T03:22:24;64.50;;;41.10;;
59876;SDS011;45749;51.140;17.184;2022-11-15T03:24:56;60.48;;;36.20;;
59876;SDS011;45749;51.140;17.184;2022-11-15T03:27:26;60.92;;;36.77;;
59876;SDS011;45749;51.140;17.184;2022-11-15T03:29:57;59.90;;;35.40;;
59876;SDS011;45749;51.140;17.184;2022-11-15T03:32:30;66.37;;;37.95;;
59876;SDS011;45749;51.140;17.184;2022-11-15T03:35:03;54.10;;;33.60;;
59876;SDS011;45749;51.140;17.184;2022-11-15T03:37:41;55.85;;;34.95;;
59876;SDS011;45749;51.140;17.184;2022-11-15T03:40:39;48.98;;;30.72;;
59876;SDS011;45749;51.140;17.184;2022-11-15T03:46:14;55.88;;;31.65;;
59876;SDS011;45749;51.140;17.184;2022-11-15T03:49:15;61.55;;;34.85;;
59876;SDS011;45749;51.140;17.184;2022-11-15T03:51:41;59.65;;;32.58;;
59876;SDS011;45749;51.140;17.184;2022-11-15T03:54:08;51.35;;;30.85;;
59876;SDS011;45749;51.140;17.184;2022-11-15T03:56:34;48.30;;;30.40;;
59876;SDS011;45749;51.140;17.184;2022-11-15T03:59:00;54.90;;;33.48;;
59876;SDS011;45749;51.140;17.184;2022-11-15T04:01:26;50.98;;;30.80;;
59876;SDS011;45749;51.140;17.184;2022-11-15T04:03:52;61.68;;;33.67;;
59876;SDS011;45749;51.140;17.184;2022-11-15T04:06:18;47.85;;;30.32;;
59876;SDS011;45749;51.140;17.184;2022-11-15T04:08:44;49.75;;;31.15;;
59876;SDS011;45749;51.140;17.184;2022-11-15T04:11:10;53.95;;;33.15;;
59876;SDS011;45749;51.140;17.184;2022-11-15T04:13:36;51.28;;;31.87;;
59876;SDS011;45749;51.140;17.184;2022-11-15T04:16:01;50.60;;;30.90;;
59876;SDS011;45749;51.140;17.184;2022-11-15T04:18:28;46.92;;;28.87;;
59876;SDS011;45749;51.140;17.184;2022-11-15T04:20:54;52.73;;;29.72;;
59876;SDS011;45749;51.140;17.184;2022-11-15T04:23:39;49.93;;;30.30;;
59876;SDS011;45749;51.140;17.184;2022-11-15T04:26:20;51.92;;;29.98;;
59876;SDS011;45749;51.140;17.184;2022-11-15T04:28:48;51.33;;;29.55;;
59876;SDS011;45749;51.140;17.184;2022-11-15T04:31:32;57.78;;;30.45;;
59876;SDS011;45749;51.140;17.184;2022-11-15T04:33:58;45.85;;;27.62;;
59876;SDS011;45749;51.140;17.184;2022-11-15T04:36:24;49.33;;;29.50;;
59876;SDS011;45749;51.140;17.184;2022-11-15T04:39:09;49.93;;;30.57;;
59876;SDS011;45749;51.140;17.184;2022-11-15T04:41:35;54.93;;;30.85;;
59876;SDS011;45749;51.140;17.184;2022-11-15T04:44:01;53.63;;;30.77;;
59876;SDS011;45749;51.140;17.184;2022-11-15T04:46:27;48.65;;;29.82;;
59876;SDS011;45749;51.140;17.184;2022-11-15T04:48:53;51.88;;;30.82;;
59876;SDS011;45749;51.140;17.184;2022-11-15T04:51:20;46.37;;;30.00;;
59876;SDS011;45749;51.140;17.184;2022-11-15T04:53:46;49.63;;;29.65;;
59876;SDS011;45749;51.140;17.184;2022-11-15T04:56:12;46.10;;;29.02;;
59876;SDS011;45749;51.140;17.184;2022-11-15T04:58:38;50.55;;;28.45;;
59876;SDS011;45749;51.140;17.184;2022-11-15T05:01:10;51.53;;;28.32;;
59876;SDS011;45749;51.140;17.184;2022-11-15T05:03:40;47.73;;;26.82;;
59876;SDS011;45749;51.140;17.184;2022-11-15T05:06:25;48.42;;;29.60;;
59876;SDS011;45749;51.140;17.184;2022-11-15T05:08:51;48.30;;;30.27;;
59876;SDS011;45749;51.140;17.184;2022-11-15T05:11:17;45.95;;;29.57;;
59876;SDS011;45749;51.140;17.184;2022-11-15T05:13:43;45.83;;;30.08;;
59876;SDS011;45749;51.140;17.184;2022-11-15T05:16:09;52.78;;;30.35;;
59876;SDS011;45749;51.140;17.184;2022-11-15T05:18:35;47.53;;;28.98;;
59876;SDS011;45749;51.140;17.184;2022-11-15T05:21:04;50.20;;;29.57;;
59876;SDS011;45749;51.140;17.184;2022-11-15T05:23:32;43.83;;;28.38;;
59876;SDS011;45749;51.140;17.184;2022-11-15T05:25:59;46.75;;;29.23;;
59876;SDS011;45749;51.140;17.184;2022-11-15T05:28:26;46.50;;;29.70;;
59876;SDS011;45749;51.140;17.184;2022-11-15T05:30:52;46.28;;;29.07;;
59876;SDS011;45749;51.140;17.184;2022-11-15T05:33:18;46.92;;;28.35;;
59876;SDS011;45749;51.140;17.184;2022-11-15T05:35:48;51.50;;;26.82;;
59876;SDS011;45749;51.140;17.184;2022-11-15T05:38:18;46.40;;;29.10;;
59876;SDS011;45749;51.140;17.184;2022-11-15T05:40:45;46.95;;;27.65;;
59876;SDS011;45749;51.140;17.184;2022-11-15T05:43:11;43.40;;;27.15;;
59876;SDS011;45749;51.140;17.184;2022-11-15T05:45:37;42.67;;;27.02;;
59876;SDS011;45749;51.140;17.184;2022-11-15T05:48:05;48.23;;;28.35;;
59876;SDS011;45749;51.140;17.184;2022-11-15T05:50:34;41.40;;;28.05;;
59876;SDS011;45749;51.140;17.184;2022-11-15T05:53:04;44.30;;;26.40;;
59876;SDS011;45749;51.140;17.184;2022-11-15T05:55:31;38.92;;;26.70;;
59876;SDS011;45749;51.140;17.184;2022-11-15T05:57:57;48.58;;;29.20;;
59876;SDS011;45749;51.140;17.184;2022-11-15T06:00:23;41.05;;;27.15;;
59876;SDS011;45749;51.140;17.184;2022-11-15T06:02:49;47.17;;;29.57;;
59876;SDS011;45749;51.140;17.184;2022-11-15T06:05:15;45.50;;;29.32;;
59876;SDS011;45749;51.140;17.184;2022-11-15T06:07:41;41.37;;;27.15;;
59876;SDS011;45749;51.140;17.184;2022-11-15T06:10:09;48.42;;;29.42;;
59876;SDS011;45749;51.140;17.184;2022-11-15T06:12:35;50.58;;;31.45;;
59876;SDS011;45749;51.140;17.184;2022-11-15T06:15:01;50.48;;;28.95;;
59876;SDS011;45749;51.140;17.184;2022-11-15T06:17:27;58.00;;;35.78;;
59876;SDS011;45749;51.140;17.184;2022-11-15T06:19:54;56.75;;;35.85;;
59876;SDS011;45749;51.140;17.184;2022-11-15T06:22:20;59.70;;;36.88;;
59876;SDS011;45749;51.140;17.184;2022-11-15T06:24:46;56.10;;;37.10;;
59876;SDS011;45749;51.140;17.184;2022-11-15T06:27:11;57.17;;;35.75;;
59876;SDS011;45749;51.140;17.184;2022-11-15T06:29:37;58.78;;;36.60;;
59876;SDS011;45749;51.140;17.184;2022-11-15T06:32:04;56.80;;;36.25;;
59876;SDS011;45749;51.140;17.184;2022-11-15T06:34:30;58.98;;;35.45;;
59876;SDS011;45749;51.140;17.184;2022-11-15T06:36:56;54.42;;;36.65;;
59876;SDS011;45749;51.140;17.184;2022-11-15T06:39:21;55.35;;;33.70;;
59876;SDS011;45749;51.140;17.184;2022-11-15T06:41:47;55.65;;;33.38;;
59876;SDS011;45749;51.140;17.184;2022-11-15T06:44:13;49.27;;;32.25;;
59876;SDS011;45749;51.140;17.184;2022-11-15T06:46:39;57.83;;;33.45;;
59876;SDS011;45749;51.140;17.184;2022-11-15T06:49:05;54.60;;;37.00;;
59876;SDS011;45749;51.140;17.184;2022-11-15T06:51:31;69.15;;;41.45;;
59876;SDS011;45749;51.140;17.184;2022-11-15T06:53:57;66.22;;;39.85;;
59876;SDS011;45749;51.140;17.184;2022-11-15T06:56:23;67.15;;;41.08;;
59876;SDS011;45749;51.140;17.184;2022-11-15T06:58:49;62.03;;;36.55;;
59876;SDS011;45749;51.140;17.184;2022-11-15T07:01:15;51.20;;;31.65;;
59876;SDS011;45749;51.140;17.184;2022-11-15T07:03:41;56.85;;;32.83;;
59876;SDS011;45749;51.140;17.184;2022-11-15T07:06:08;50.12;;;32.90;;
59876;SDS011;45749;51.140;17.184;2022-11-15T07:08:35;53.25;;;30.72;;
59876;SDS011;45749;51.140;17.184;2022-11-15T07:11:02;57.10;;;32.80;;
59876;SDS011;45749;51.140;17.184;2022-11-15T07:13:31;51.77;;;32.42;;
59876;SDS011;45749;51.140;17.184;2022-11-15T07:16:01;55.75;;;32.17;;
59876;SDS011;45749;51.140;17.184;2022-11-15T07:18:35;59.53;;;35.43;;
59876;SDS011;45749;51.140;17.184;2022-11-15T07:21:04;49.80;;;32.30;;
59876;SDS011;45749;51.140;17.184;2022-11-15T07:23:35;56.65;;;32.48;;
59876;SDS011;45749;51.140;17.184;2022-11-15T07:26:03;57.67;;;35.10;;
59876;SDS011;45749;51.140;17.184;2022-11-15T07:28:29;55.00;;;34.03;;
59876;SDS011;45749;51.140;17.184;2022-11-15T07:30:55;56.50;;;34.40;;
59876;SDS011;45749;51.140;17.184;2022-11-15T07:33:21;56.90;;;35.85;;
59876;SDS011;45749;51.140;17.184;2022-11-15T07:35:47;54.60;;;33.28;;
59876;SDS011;45749;51.140;17.184;2022-11-15T07:38:13;52.17;;;31.27;;
59876;SDS011;45749;51.140;17.184;2022-11-15T07:40:40;57.43;;;33.00;;
59876;SDS011;45749;51.140;17.184;2022-11-15T07:43:07;58.13;;;34.88;;
59876;SDS011;45749;51.140;17.184;2022-11-15T07:45:34;61.02;;;37.85;;
59876;SDS011;45749;51.140;17.184;2022-11-15T07:48:10;59.33;;;35.68;;
59876;SDS011;45749;51.140;17.184;2022-11-15T07:50:36;65.30;;;38.53;;
59876;SDS011;45749;51.140;17.184;2022-11-15T07:53:08;67.30;;;40.60;;
59876;SDS011;45749;51.140;17.184;2022-11-15T07:55:35;78.17;;;44.35;;
59876;SDS011;45749;51.140;17.184;2022-11-15T07:58:06;70.78;;;42.25;;
59876;SDS011;45749;51.140;17.184;2022-11-15T08:00:34;61.73;;;38.95;;
59876;SDS011;45749;51.140;17.184;2022-11-15T08:03:05;61.33;;;38.28;;
59876;SDS011;45749;51.140;17.184;2022-11-15T08:05:34;59.50;;;38.85;;
59876;SDS011;45749;51.140;17.184;2022-11-15T08:08:01;89.28;;;58.10;;
59876;SDS011;45749;51.140;17.184;2022-11-15T08:10:28;97.88;;;75.62;;
59876;SDS011;45749;51.140;17.184;2022-11-15T08:13:09;65.32;;;42.05;;
59876;SDS011;45749;51.140;17.184;2022-11-15T08:15:34;59.63;;;38.38;;
59876;SDS011;45749;51.140;17.184;2022-11-15T08:18:04;63.80;;;42.85;;
59876;SDS011;45749;51.140;17.184;2022-11-15T08:20:32;73.42;;;45.30;;
59876;SDS011;45749;51.140;17.184;2022-11-15T08:23:00;65.15;;;39.08;;
59876;SDS011;45749;51.140;17.184;2022-11-15T08:25:29;60.15;;;39.80;;
59876;SDS011;45749;51.140;17.184;2022-11-15T08:27:57;60.00;;;40.60;;
59876;SDS011;45749;51.140;17.184;2022-11-15T08:30:27;61.77;;;41.92;;
59876;SDS011;45749;51.140;17.184;2022-11-15T08:32:53;68.42;;;41.15;;
59876;SDS011;45749;51.140;17.184;2022-11-15T08:35:22;62.98;;;39.78;;
59876;SDS011;45749;51.140;17.184;2022-11-15T08:37:49;60.73;;;39.45;;
59876;SDS011;45749;51.140;17.184;2022-11-15T08:40:16;77.72;;;52.23;;
59876;SDS011;45749;51.140;17.184;2022-11-15T08:42:45;66.50;;;40.52;;
59876;SDS011;45749;51.140;17.184;2022-11-15T08:45:12;54.85;;;34.03;;
59876;SDS011;45749;51.140;17.184;2022-11-15T08:47:38;59.40;;;37.15;;
59876;SDS011;45749;51.140;17.184;2022-11-15T08:50:05;65.30;;;37.83;;
59876;SDS011;45749;51.140;17.184;2022-11-15T08:52:32;55.40;;;37.90;;
59876;SDS011;45749;51.140;17.184;2022-11-15T08:54:58;57.08;;;36.58;;
59876;SDS011;45749;51.140;17.184;2022-11-15T08:57:24;61.70;;;36.55;;
59876;SDS011;45749;51.140;17.184;2022-11-15T08:59:50;56.08;;;35.10;;
59876;SDS011;45749;51.140;17.184;2022-11-15T09:02:16;58.20;;;36.95;;
59876;SDS011;45749;51.140;17.184;2022-11-15T09:04:42;62.33;;;38.17;;
59876;SDS011;45749;51.140;17.184;2022-11-15T09:07:10;59.42;;;36.98;;
59876;SDS011;45749;51.140;17.184;2022-11-15T09:09:36;60.80;;;37.63;;
59876;SDS011;45749;51.140;17.184;2022-11-15T09:12:03;61.53;;;37.08;;
59876;SDS011;45749;51.140;17.184;2022-11-15T09:14:31;60.43;;;38.08;;
59876;SDS011;45749;51.140;17.184;2022-11-15T09:16:57;59.98;;;38.00;;
59876;SDS011;45749;51.140;17.184;2022-11-15T09:19:23;63.08;;;39.27;;
59876;SDS011;45749;51.140;17.184;2022-11-15T09:21:49;72.08;;;43.40;;
59876;SDS011;45749;51.140;17.184;2022-11-15T09:24:15;69.40;;;41.48;;
59876;SDS011;45749;51.140;17.184;2022-11-15T09:26:42;57.35;;;37.08;;
59876;SDS011;45749;51.140;17.184;2022-11-15T09:29:09;64.15;;;41.92;;
59876;SDS011;45749;51.140;17.184;2022-11-15T09:31:35;60.25;;;37.58;;
59876;SDS011;45749;51.140;17.184;2022-11-15T09:34:01;61.00;;;39.03;;
59876;SDS011;45749;51.140;17.184;2022-11-15T09:36:27;60.63;;;38.70;;
59876;SDS011;45749;51.140;17.184;2022-11-15T09:38:53;61.75;;;38.70;;
59876;SDS011;45749;51.140;17.184;2022-11-15T09:41:33;64.58;;;42.05;;
59876;SDS011;45749;51.140;17.184;2022-11-15T09:50:11;63.38;;;38.85;;
59876;SDS011;45749;51.140;17.184;2022-11-15T09:52:42;58.68;;;37.73;;
59876;SDS011;45749;51.140;17.184;2022-11-15T09:55:10;55.58;;;35.95;;
59876;SDS011;45749;51.140;17.184;2022-11-15T10:00:33;56.70;;;38.35;;
59876;SDS011;45749;51.140;17.184;2022-11-15T10:05:47;53.58;;;36.10;;
59876;SDS011;45749;51.140;17.184;2022-11-15T10:08:37;63.13;;;41.25;;
59876;SDS011;45749;51.140;17.184;2022-11-15T10:11:09;86.97;;;66.40;;
59876;SDS011;45749;51.140;17.184;2022-11-15T10:13:39;53.95;;;35.85;;
59876;SDS011;45749;51.140;17.184;2022-11-15T10:16:21;45.05;;;28.30;;
59876;SDS011;45749;51.140;17.184;2022-11-15T10:19:07;41.70;;;28.57;;
59876;SDS011;45749;51.140;17.184;2022-11-15T10:30:11;44.38;;;28.32;;
59876;SDS011;45749;51.140;17.184;2022-11-15T10:32:43;48.60;;;30.48;;
59876;SDS011;45749;51.140;17.184;2022-11-15T10:35:18;39.13;;;29.12;;
59876;SDS011;45749;51.140;17.184;2022-11-15T10:37:47;41.05;;;27.35;;
59876;SDS011;45749;51.140;17.184;2022-11-15T10:40:21;42.62;;;29.90;;
59876;SDS011;45749;51.140;17.184;2022-11-15T10:43:03;49.48;;;31.15;;
59876;SDS011;45749;51.140;17.184;2022-11-15T10:45:33;40.67;;;29.80;;
59876;SDS011;45749;51.140;17.184;2022-11-15T10:50:47;41.40;;;28.15;;
59876;SDS011;45749;51.140;17.184;2022-11-15T10:53:17;43.98;;;29.05;;
59876;SDS011;45749;51.140;17.184;2022-11-15T10:55:57;38.67;;;26.70;;
59876;SDS011;45749;51.140;17.184;2022-11-15T10:58:44;45.75;;;29.45;;
59876;SDS011;45749;51.140;17.184;2022-11-15T11:01:16;42.25;;;28.57;;
59876;SDS011;45749;51.140;17.184;2022-11-15T11:03:57;39.58;;;25.77;;
59876;SDS011;45749;51.140;17.184;2022-11-15T11:06:45;38.00;;;25.25;;
59876;SDS011;45749;51.140;17.184;2022-11-15T11:09:36;41.10;;;28.47;;
59876;SDS011;45749;51.140;17.184;2022-11-15T11:12:11;46.05;;;32.00;;
59876;SDS011;45749;51.140;17.184;2022-11-15T11:14:38;40.70;;;29.60;;
59876;SDS011;45749;51.140;17.184;2022-11-15T11:25:57;35.63;;;24.50;;
59876;SDS011;45749;51.140;17.184;2022-11-15T11:37:51;30.60;;;21.82;;
59876;SDS011;45749;51.140;17.184;2022-11-15T11:40:30;31.97;;;22.07;;
59876;SDS011;45749;51.140;17.184;2022-11-15T11:46:03;25.92;;;19.40;;
59876;SDS011;45749;51.140;17.184;2022-11-15T11:54:42;25.08;;;17.85;;
59876;SDS011;45749;51.140;17.184;2022-11-15T12:00:18;23.90;;;18.32;;
59876;SDS011;45749;51.140;17.184;2022-11-15T12:05:59;27.62;;;19.67;;
59876;SDS011;45749;51.140;17.184;2022-11-15T12:08:48;32.20;;;22.60;;
59876;SDS011;45749;51.140;17.184;2022-11-15T12:14:16;32.15;;;22.50;;
59876;SDS011;45749;51.140;17.184;2022-11-15T12:17:11;31.95;;;21.62;;
59876;SDS011;45749;51.140;17.184;2022-11-15T12:19:38;25.05;;;18.20;;
59876;SDS011;45749;51.140;17.184;2022-11-15T12:22:13;27.35;;;18.98;;
59876;SDS011;45749;51.140;17.184;2022-11-15T12:24:54;24.45;;;19.05;;
59876;SDS011;45749;51.140;17.184;2022-11-15T12:27:32;25.90;;;18.37;;
59876;SDS011;45749;51.140;17.184;2022-11-15T12:30:02;26.50;;;20.35;;
59876;SDS011;45749;51.140;17.184;2022-11-15T12:32:37;25.20;;;20.45;;
59876;SDS011;45749;51.140;17.184;2022-11-15T12:35:19;27.80;;;19.42;;
59876;SDS011;45749;51.140;17.184;2022-11-15T12:37:55;23.60;;;18.40;;
59876;SDS011;45749;51.140;17.184;2022-11-15T12:40:25;25.48;;;19.70;;
59876;SDS011;45749;51.140;17.184;2022-11-15T12:45:44;25.45;;;18.07;;
59876;SDS011;45749;51.140;17.184;2022-11-15T13:04:11;23.07;;;15.28;;
59876;SDS011;45749;51.140;17.184;2022-11-15T13:06:49;21.50;;;15.80;;
59876;SDS011;45749;51.140;17.184;2022-11-15T13:12:03;31.93;;;28.50;;
59876;SDS011;45749;51.140;17.184;2022-11-15T13:17:44;23.12;;;17.77;;
59876;SDS011;45749;51.140;17.184;2022-11-15T13:23:11;22.67;;;17.12;;
59876;SDS011;45749;51.140;17.184;2022-11-15T13:31:18;22.55;;;17.25;;
59876;SDS011;45749;51.140;17.184;2022-11-15T13:34:48;27.98;;;20.77;;
59876;SDS011;45749;51.140;17.184;2022-11-15T13:36:43;25.82;;;19.60;;
59876;SDS011;45749;51.140;17.184;2022-11-15T13:39:14;33.35;;;25.52;;
59876;SDS011;45749;51.140;17.184;2022-11-15T13:44:29;23.00;;;17.23;;
59876;SDS011;45749;51.140;17.184;2022-11-15T13:47:03;27.70;;;20.23;;
59876;SDS011;45749;51.140;17.184;2022-11-15T13:49:33;23.57;;;17.85;;
59876;SDS011;45749;51.140;17.184;2022-11-15T13:52:00;23.45;;;17.92;;
59876;SDS011;45749;51.140;17.184;2022-11-15T13:54:35;24.82;;;18.73;;
59876;SDS011;45749;51.140;17.184;2022-11-15T13:57:12;31.82;;;23.38;;
59876;SDS011;45749;51.140;17.184;2022-11-15T13:59:51;27.55;;;20.57;;
59876;SDS011;45749;51.140;17.184;2022-11-15T14:07:57;27.22;;;20.55;;
59876;SDS011;45749;51.140;17.184;2022-11-15T14:13:01;24.37;;;19.73;;
59876;SDS011;45749;51.140;17.184;2022-11-15T14:15:32;29.42;;;20.40;;
59876;SDS011;45749;51.140;17.184;2022-11-15T14:18:01;25.43;;;20.23;;
59876;SDS011;45749;51.140;17.184;2022-11-15T14:20:29;30.12;;;21.30;;
59876;SDS011;45749;51.140;17.184;2022-11-15T14:25:57;31.40;;;21.50;;
59876;SDS011;45749;51.140;17.184;2022-11-15T14:31:04;35.10;;;24.65;;
59876;SDS011;45749;51.140;17.184;2022-11-15T14:36:02;30.57;;;20.77;;
59876;SDS011;45749;51.140;17.184;2022-11-15T14:38:32;29.57;;;22.05;;
59876;SDS011;45749;51.140;17.184;2022-11-15T14:40:59;37.28;;;27.40;;
59876;SDS011;45749;51.140;17.184;2022-11-15T14:43:25;34.73;;;25.48;;
59876;SDS011;45749;51.140;17.184;2022-11-15T14:45:51;33.30;;;23.75;;
59876;SDS011;45749;51.140;17.184;2022-11-15T14:48:17;34.35;;;23.70;;
59876;SDS011;45749;51.140;17.184;2022-11-15T14:50:43;31.55;;;23.52;;
59876;SDS011;45749;51.140;17.184;2022-11-15T14:53:14;33.98;;;21.80;;
59876;SDS011;45749;51.140;17.184;2022-11-15T14:55:40;38.10;;;24.23;;
59876;SDS011;45749;51.140;17.184;2022-11-15T14:58:07;28.20;;;21.57;;
59876;SDS011;45749;51.140;17.184;2022-11-15T15:00:34;29.20;;;22.40;;
59876;SDS011;45749;51.140;17.184;2022-11-15T15:03:05;30.13;;;22.33;;
59876;SDS011;45749;51.140;17.184;2022-11-15T15:05:37;34.43;;;24.60;;
59876;SDS011;45749;51.140;17.184;2022-11-15T15:08:06;32.10;;;23.38;;
59876;SDS011;45749;51.140;17.184;2022-11-15T15:10:35;34.43;;;22.82;;
59876;SDS011;45749;51.140;17.184;2022-11-15T15:13:05;34.45;;;23.67;;
59876;SDS011;45749;51.140;17.184;2022-11-15T15:15:34;40.43;;;25.92;;
59876;SDS011;45749;51.140;17.184;2022-11-15T15:18:07;37.53;;;24.70;;
59876;SDS011;45749;51.140;17.184;2022-11-15T15:20:31;34.18;;;24.52;;
59876;SDS011;45749;51.140;17.184;2022-11-15T15:22:58;37.80;;;27.25;;
59876;SDS011;45749;51.140;17.184;2022-11-15T15:25:26;36.58;;;27.22;;
59876;SDS011;45749;51.140;17.184;2022-11-15T15:27:58;33.08;;;23.73;;
59876;SDS011;45749;51.140;17.184;2022-11-15T15:30:26;35.20;;;23.40;;
59876;SDS011;45749;51.140;17.184;2022-11-15T15:32:54;38.48;;;25.52;;
59876;SDS011;45749;51.140;17.184;2022-11-15T15:35:21;29.72;;;20.92;;
59876;SDS011;45749;51.140;17.184;2022-11-15T15:37:47;28.50;;;22.55;;
59876;SDS011;45749;51.140;17.184;2022-11-15T15:40:19;29.42;;;22.85;;
59876;SDS011;45749;51.140;17.184;2022-11-15T15:42:48;34.45;;;24.52;;
59876;SDS011;45749;51.140;17.184;2022-11-15T15:45:15;37.85;;;24.52;;
59876;SDS011;45749;51.140;17.184;2022-11-15T15:47:42;38.42;;;28.07;;
59876;SDS011;45749;51.140;17.184;2022-11-15T15:52:53;67.32;;;46.45;;
59876;SDS011;45749;51.140;17.184;2022-11-15T15:55:22;64.10;;;42.62;;
59876;SDS011;45749;51.140;17.184;2022-11-15T15:57:49;56.42;;;37.13;;
59876;SDS011;45749;51.140;17.184;2022-11-15T16:00:16;74.30;;;42.65;;
59876;SDS011;45749;51.140;17.184;2022-11-15T16:02:43;52.65;;;32.40;;
59876;SDS011;45749;51.140;17.184;2022-11-15T16:05:10;47.58;;;32.25;;
59876;SDS011;45749;51.140;17.184;2022-11-15T16:07:37;43.85;;;29.00;;
59876;SDS011;45749;51.140;17.184;2022-11-15T16:12:48;39.08;;;28.27;;
59876;SDS011;45749;51.140;17.184;2022-11-15T16:15:14;54.67;;;33.75;;
59876;SDS011;45749;51.140;17.184;2022-11-15T16:17:42;72.03;;;40.90;;
59876;SDS011;45749;51.140;17.184;2022-11-15T16:23:08;53.02;;;34.60;;
59876;SDS011;45749;51.140;17.184;2022-11-15T16:25:49;56.83;;;41.42;;
59876;SDS011;45749;51.140;17.184;2022-11-15T16:28:28;57.93;;;37.73;;
59876;SDS011;45749;51.140;17.184;2022-11-15T16:30:59;66.47;;;39.55;;
59876;SDS011;45749;51.140;17.184;2022-11-15T16:33:28;76.55;;;45.30;;
59876;SDS011;45749;51.140;17.184;2022-11-15T16:35:54;62.30;;;43.08;;
59876;SDS011;45749;51.140;17.184;2022-11-15T16:38:20;68.50;;;43.08;;
59876;SDS011;45749;51.140;17.184;2022-11-15T16:40:46;65.75;;;42.50;;
59876;SDS011;45749;51.140;17.184;2022-11-15T16:43:12;67.42;;;42.15;;
59876;SDS011;45749;51.140;17.184;2022-11-15T16:45:38;64.82;;;43.52;;
59876;SDS011;45749;51.140;17.184;2022-11-15T16:48:04;105.22;;;63.15;;
59876;SDS011;45749;51.140;17.184;2022-11-15T16:50:31;138.32;;;80.50;;
59876;SDS011;45749;51.140;17.184;2022-11-15T16:53:05;135.75;;;77.82;;